Time;durP1;ratioP1;P1;durP2;ratioP2;P2;SDS_P1;SDS_P2;PMS_P1;PMS_P2;Temp;Humidity;BMP_temperature;BMP_pressure;BME280_temperature;BME280_humidity;BME280_pressure;Samples;Min_cycle;Max_cycle;Signal;HPM_P1;HPM_P2
2021/08/27 00:01:49;;;;;;;;;4.75;3.25;;;;;;;;5079710;28;46702;-77
2021/08/27 00:04:14;;;;;;;;;5.00;3.00;;;;;;;;5080687;28;47153;-77
2021/08/27 00:06:39;;;;;;;;;5.00;4.25;;;;;;;;5062864;28;47725;-77
2021/08/27 00:09:05;;;;;;;;;6.00;3.50;;;;;;;;5081024;28;46835;-77
2021/08/27 00:11:30;;;;;;;;;7.00;4.50;;;;;;;;5081483;28;46735;-77
2021/08/27 00:13:56;;;;;;;;;5.25;4.50;;;;;;;;5080783;28;46776;-77
2021/08/27 00:16:21;;;;;;;;;5.50;5.00;;;;;;;;5080862;28;47150;-77
2021/08/27 00:18:46;;;;;;;;;5.00;4.25;;;;;;;;5080828;28;46959;-77
2021/08/27 00:21:12;;;;;;;;;7.50;4.00;;;;;;;;5081199;28;46934;-77
2021/08/27 00:23:38;;;;;;;;;6.00;3.50;;;;;;;;5080803;28;47162;-77
2021/08/27 00:26:04;;;;;;;;;5.25;4.25;;;;;;;;5080443;28;46919;-76
2021/08/27 00:28:29;;;;;;;;;7.25;4.00;;;;;;;;5080864;28;46961;-76
2021/08/27 00:30:58;;;;;;;;;3.25;3.00;;;;;;;;5081096;28;46851;-77
2021/08/27 00:33:26;;;;;;;;;6.50;4.50;;;;;;;;5080281;28;46820;-76
2021/08/27 00:35:52;;;;;;;;;9.75;4.25;;;;;;;;5062495;28;47832;-77
2021/08/27 00:38:17;;;;;;;;;6.50;3.75;;;;;;;;5080769;28;47016;-77
2021/08/27 00:40:43;;;;;;;;;4.00;3.25;;;;;;;;5080852;28;46901;-76
2021/08/27 00:43:11;;;;;;;;;6.25;4.50;;;;;;;;5080410;28;46987;-76
2021/08/27 00:45:37;;;;;;;;;4.00;4.00;;;;;;;;5080573;28;46778;-76
2021/08/27 00:48:03;;;;;;;;;7.50;5.00;;;;;;;;5080348;28;46716;-76
2021/08/27 00:50:28;;;;;;;;;4.25;3.50;;;;;;;;5080709;28;46955;-77
2021/08/27 00:52:53;;;;;;;;;7.25;4.00;;;;;;;;5080346;28;47038;-77
2021/08/27 00:55:19;;;;;;;;;5.00;4.00;;;;;;;;5080336;28;46903;-76
2021/08/27 00:57:44;;;;;;;;;5.25;4.50;;;;;;;;5061804;28;46751;-76
2021/08/27 01:00:10;;;;;;;;;6.00;4.00;;;;;;;;5080583;28;47237;-76
2021/08/27 01:02:36;;;;;;;;;6.00;4.25;;;;;;;;5080140;28;47779;-76
2021/08/27 01:05:03;;;;;;;;;6.00;6.00;;;;;;;;5079940;28;47266;-76
2021/08/27 01:07:35;;;;;;;;;5.75;4.00;;;;;;;;5061864;28;46917;-76
2021/08/27 01:10:11;;;;;;;;;8.50;4.75;;;;;;;;5062075;28;46861;-77
2021/08/27 01:12:36;;;;;;;;;5.00;5.00;;;;;;;;5078795;28;47688;-77
2021/08/27 01:15:10;;;;;;;;;12.25;5.00;;;;;;;;5061247;28;46961;-77
2021/08/27 01:17:59;;;;;;;;;7.50;5.00;;;;;;;;5061759;28;47023;-76
2021/08/27 01:20:24;;;;;;;;;3.25;3.00;;;;;;;;5080092;28;47012;-76
2021/08/27 01:23:02;;;;;;;;;4.00;3.75;;;;;;;;5079955;28;47089;-76
2021/08/27 01:25:30;;;;;;;;;4.00;3.00;;;;;;;;5077471;28;46851;-76
2021/08/27 01:27:56;;;;;;;;;5.75;4.75;;;;;;;;5075151;27;46916;-76
2021/08/27 01:30:27;;;;;;;;;5.00;4.25;;;;;;;;5076109;28;47038;-76
2021/08/27 01:33:09;;;;;;;;;4.25;3.25;;;;;;;;5079346;28;47185;-77
2021/08/27 01:35:35;;;;;;;;;6.00;5.00;;;;;;;;5079473;28;47168;-76
2021/08/27 01:38:03;;;;;;;;;6.25;4.00;;;;;;;;5079920;28;46815;-77
2021/08/27 01:40:30;;;;;;;;;5.50;4.25;;;;;;;;5079509;28;47075;-77
2021/08/27 01:42:56;;;;;;;;;7.75;5.00;;;;;;;;5079580;28;47886;-77
2021/08/27 01:45:23;;;;;;;;;8.00;6.00;;;;;;;;5079551;28;47117;-77
2021/08/27 01:47:48;;;;;;;;;4.50;4.00;;;;;;;;5060994;28;47020;-76
2021/08/27 01:50:14;;;;;;;;;10.00;6.00;;;;;;;;5079590;28;46840;-76
2021/08/27 01:52:40;;;;;;;;;3.00;3.00;;;;;;;;5079545;28;47342;-76
2021/08/27 01:55:07;;;;;;;;;7.25;4.25;;;;;;;;5060942;28;46916;-76
2021/08/27 01:57:34;;;;;;;;;6.25;5.00;;;;;;;;5079160;27;47078;-76
2021/08/27 01:59:59;;;;;;;;;5.25;4.25;;;;;;;;5079499;28;47105;-76
2021/08/27 02:02:26;;;;;;;;;8.75;4.00;;;;;;;;5079189;28;46912;-76
2021/08/27 02:04:53;;;;;;;;;6.25;5.00;;;;;;;;5078880;28;47120;-76
2021/08/27 02:07:19;;;;;;;;;5.00;5.00;;;;;;;;5079443;28;46985;-76
2021/08/27 02:09:45;;;;;;;;;8.25;5.25;;;;;;;;5079446;28;47210;-76
2021/08/27 02:12:11;;;;;;;;;9.50;6.00;;;;;;;;5078927;28;47228;-76
2021/08/27 02:14:38;;;;;;;;;8.00;6.25;;;;;;;;5078883;28;46875;-76
2021/08/27 02:17:05;;;;;;;;;9.25;5.75;;;;;;;;5078996;28;47166;-76
2021/08/27 02:19:31;;;;;;;;;9.50;6.00;;;;;;;;5060720;28;47265;-76
2021/08/27 02:21:58;;;;;;;;;3.75;3.25;;;;;;;;5078764;28;47667;-76
2021/08/27 02:24:28;;;;;;;;;7.75;5.75;;;;;;;;5078616;28;47252;-76
2021/08/27 02:26:54;;;;;;;;;7.00;6.00;;;;;;;;5066391;28;46774;-76
2021/08/27 02:29:20;;;;;;;;;6.25;4.25;;;;;;;;5079034;28;47262;-76
2021/08/27 02:31:48;;;;;;;;;11.00;3.75;;;;;;;;5078838;28;47986;-76
2021/08/27 02:34:15;;;;;;;;;9.00;6.00;;;;;;;;5078332;28;47196;-76
2021/08/27 02:36:41;;;;;;;;;7.50;5.75;;;;;;;;5078944;28;46927;-76
2021/08/27 02:39:07;;;;;;;;;8.50;4.25;;;;;;;;5078974;28;47074;-76
2021/08/27 02:41:33;;;;;;;;;8.50;5.50;;;;;;;;5078540;28;46906;-76
2021/08/27 02:43:58;;;;;;;;;5.75;4.25;;;;;;;;5078573;28;46940;-76
2021/08/27 02:46:23;;;;;;;;;4.00;4.00;;;;;;;;5078782;28;46793;-76
2021/08/27 02:48:49;;;;;;;;;8.75;5.00;;;;;;;;5078600;28;46855;-76
2021/08/27 02:51:15;;;;;;;;;6.50;6.25;;;;;;;;5078517;28;47725;-76
2021/08/27 02:53:43;;;;;;;;;5.25;4.00;;;;;;;;5078685;28;47408;-76
2021/08/27 02:56:13;;;;;;;;;8.25;4.75;;;;;;;;5078402;28;46871;-76
2021/08/27 02:58:38;;;;;;;;;9.00;6.50;;;;;;;;5060411;28;46977;-76
2021/08/27 03:01:17;;;;;;;;;7.00;5.00;;;;;;;;5060039;28;48812;-76
2021/08/27 03:03:48;;;;;;;;;8.75;4.00;;;;;;;;5078074;28;47205;-76
2021/08/27 03:06:17;;;;;;;;;9.50;5.00;;;;;;;;5078560;28;46829;-76
2021/08/27 03:08:45;;;;;;;;;7.75;5.75;;;;;;;;5078602;28;47188;-76
2021/08/27 03:11:12;;;;;;;;;6.75;4.00;;;;;;;;5078133;28;47445;-76
2021/08/27 03:13:40;;;;;;;;;7.50;4.00;;;;;;;;5078256;28;46796;-76
2021/08/27 03:16:08;;;;;;;;;7.25;5.00;;;;;;;;5077750;28;47127;-76
2021/08/27 03:18:36;;;;;;;;;6.50;6.50;;;;;;;;5078207;28;47298;-77
2021/08/27 03:21:06;;;;;;;;;7.75;4.00;;;;;;;;5077967;28;47255;-76
2021/08/27 03:23:33;;;;;;;;;5.75;5.75;;;;;;;;5078120;28;46992;-76
2021/08/27 03:26:01;;;;;;;;;7.25;5.00;;;;;;;;5071888;28;46973;-76
2021/08/27 03:28:27;;;;;;;;;8.00;6.00;;;;;;;;5071555;28;47132;-76
2021/08/27 03:30:54;;;;;;;;;7.50;4.75;;;;;;;;5078061;28;46876;-76
2021/08/27 03:33:20;;;;;;;;;6.25;6.00;;;;;;;;5077609;28;47223;-76
2021/08/27 03:35:50;;;;;;;;;7.00;6.50;;;;;;;;5059696;28;46825;-76
2021/08/27 03:38:16;;;;;;;;;10.50;6.00;;;;;;;;5081605;28;47144;-76
2021/08/27 03:40:43;;;;;;;;;6.75;3.75;;;;;;;;5062953;28;47059;-76
2021/08/27 03:43:09;;;;;;;;;6.50;5.00;;;;;;;;5063017;28;46877;-76
2021/08/27 03:45:35;;;;;;;;;9.25;7.00;;;;;;;;5081652;28;46929;-76
2021/08/27 03:48:01;;;;;;;;;8.25;6.75;;;;;;;;5081240;28;46916;-76
2021/08/27 03:50:26;;;;;;;;;8.25;6.25;;;;;;;;5081583;28;48120;-76
2021/08/27 03:52:52;;;;;;;;;6.25;5.25;;;;;;;;5081263;28;46979;-76
2021/08/27 03:55:19;;;;;;;;;6.50;6.00;;;;;;;;5062962;28;46968;-76
2021/08/27 03:57:46;;;;;;;;;7.00;5.50;;;;;;;;5081281;28;46918;-76
2021/08/27 04:00:12;;;;;;;;;6.00;5.75;;;;;;;;5081284;28;47013;-76
2021/08/27 04:02:38;;;;;;;;;6.50;5.50;;;;;;;;5080896;28;46885;-76
2021/08/27 04:05:08;;;;;;;;;8.00;6.00;;;;;;;;5081370;28;46869;-76
2021/08/27 04:07:33;;;;;;;;;11.75;7.75;;;;;;;;5081380;28;47045;-76
2021/08/27 04:09:59;;;;;;;;;7.75;4.75;;;;;;;;5081150;28;46998;-76
2021/08/27 04:12:24;;;;;;;;;7.75;7.00;;;;;;;;5080730;28;46975;-76
2021/08/27 04:14:49;;;;;;;;;9.25;5.75;;;;;;;;5081030;28;46888;-76
2021/08/27 04:17:15;;;;;;;;;5.00;4.75;;;;;;;;5081027;28;46929;-76
2021/08/27 04:19:40;;;;;;;;;7.00;5.75;;;;;;;;5080550;28;47140;-76
2021/08/27 04:22:05;;;;;;;;;6.75;5.00;;;;;;;;5080804;28;47116;-76
2021/08/27 04:24:30;;;;;;;;;9.00;6.00;;;;;;;;5081044;28;46953;-76
2021/08/27 04:26:56;;;;;;;;;9.75;5.50;;;;;;;;5050223;28;47272;-76
2021/08/27 04:29:21;;;;;;;;;6.50;5.00;;;;;;;;5062232;28;47281;-76
2021/08/27 04:31:46;;;;;;;;;9.75;7.00;;;;;;;;5080515;28;46857;-76
2021/08/27 04:34:12;;;;;;;;;5.75;4.00;;;;;;;;5080361;28;46837;-76
2021/08/27 04:36:37;;;;;;;;;6.50;6.50;;;;;;;;5062495;28;46812;-76
2021/08/27 04:39:03;;;;;;;;;10.00;4.25;;;;;;;;5080685;28;47192;-76
2021/08/27 04:41:28;;;;;;;;;8.00;8.00;;;;;;;;5080492;28;46976;-76
2021/08/27 04:43:53;;;;;;;;;10.00;6.75;;;;;;;;5080484;28;47321;-76
2021/08/27 04:46:19;;;;;;;;;9.75;7.00;;;;;;;;5080604;28;46762;-76
2021/08/27 04:48:45;;;;;;;;;10.00;7.25;;;;;;;;5079950;28;48278;-76
2021/08/27 04:51:10;;;;;;;;;8.75;6.75;;;;;;;;5080395;28;46889;-76
2021/08/27 04:53:35;;;;;;;;;11.00;6.25;;;;;;;;5062145;28;47056;-76
2021/08/27 04:56:01;;;;;;;;;10.50;5.75;;;;;;;;5061949;28;46822;-76
2021/08/27 04:58:26;;;;;;;;;8.00;6.00;;;;;;;;5080342;28;47118;-76
2021/08/27 05:00:54;;;;;;;;;12.75;6.75;;;;;;;;5080148;28;46960;-76
2021/08/27 05:03:20;;;;;;;;;8.25;6.00;;;;;;;;5080174;28;47117;-76
2021/08/27 05:05:46;;;;;;;;;6.75;6.75;;;;;;;;5080385;28;46989;-76
2021/08/27 05:08:11;;;;;;;;;11.25;7.50;;;;;;;;5080083;28;48014;-76
2021/08/27 05:10:37;;;;;;;;;8.50;6.50;;;;;;;;5080173;28;46821;-76
2021/08/27 05:13:02;;;;;;;;;9.25;6.75;;;;;;;;5079986;28;47062;-76
2021/08/27 05:15:27;;;;;;;;;10.75;8.00;;;;;;;;5080016;28;47001;-76
2021/08/27 05:17:53;;;;;;;;;7.50;7.50;;;;;;;;5061005;28;47105;-76
2021/08/27 05:20:18;;;;;;;;;8.50;6.75;;;;;;;;5079875;28;46912;-76
2021/08/27 05:22:43;;;;;;;;;8.25;6.50;;;;;;;;5061748;28;46930;-76
2021/08/27 05:25:09;;;;;;;;;6.25;6.00;;;;;;;;5061893;28;47212;-76
2021/08/27 05:27:38;;;;;;;;;12.25;8.00;;;;;;;;5066705;28;46836;-76
2021/08/27 05:30:07;;;;;;;;;10.50;8.50;;;;;;;;5079806;28;47215;-76
2021/08/27 05:32:32;;;;;;;;;10.00;8.25;;;;;;;;5079777;28;46792;-76
2021/08/27 05:34:57;;;;;;;;;12.00;8.25;;;;;;;;5061315;28;47253;-76
2021/08/27 05:37:23;;;;;;;;;13.50;9.50;;;;;;;;5079828;28;47657;-76
2021/08/27 05:39:48;;;;;;;;;10.75;7.25;;;;;;;;5079736;28;46911;-76
2021/08/27 05:42:14;;;;;;;;;11.50;10.00;;;;;;;;5079531;28;46831;-76
2021/08/27 05:44:39;;;;;;;;;12.00;7.75;;;;;;;;5079928;28;46840;-76
2021/08/27 05:47:04;;;;;;;;;14.75;9.25;;;;;;;;5061185;28;48275;-76
2021/08/27 05:49:30;;;;;;;;;12.00;10.25;;;;;;;;5079238;28;46732;-76
2021/08/27 05:51:55;;;;;;;;;10.50;8.75;;;;;;;;5079766;28;46761;-76
2021/08/27 05:54:20;;;;;;;;;10.75;6.75;;;;;;;;5079436;28;46821;-76
2021/08/27 05:56:46;;;;;;;;;13.00;7.25;;;;;;;;5079376;28;46700;-76
2021/08/27 05:59:11;;;;;;;;;13.75;9.50;;;;;;;;5060249;28;46954;-76
2021/08/27 06:01:37;;;;;;;;;11.00;7.75;;;;;;;;5061058;28;46963;-76
2021/08/27 06:04:02;;;;;;;;;11.75;8.50;;;;;;;;5079182;28;47026;-76
2021/08/27 06:06:28;;;;;;;;;11.50;9.25;;;;;;;;5079305;28;47125;-76
2021/08/27 06:08:53;;;;;;;;;13.25;8.50;;;;;;;;5079204;28;46998;-76
2021/08/27 06:11:18;;;;;;;;;10.25;7.50;;;;;;;;5079274;28;46975;-76
2021/08/27 06:13:44;;;;;;;;;11.50;10.50;;;;;;;;5079318;28;46931;-76
2021/08/27 06:16:09;;;;;;;;;10.50;8.75;;;;;;;;5060408;28;47058;-76
2021/08/27 06:18:34;;;;;;;;;16.75;11.00;;;;;;;;5078829;28;46991;-76
2021/08/27 06:21:00;;;;;;;;;16.00;11.00;;;;;;;;5078953;28;47085;-76
2021/08/27 06:23:25;;;;;;;;;13.25;10.75;;;;;;;;5061136;28;47237;-76
2021/08/27 06:25:50;;;;;;;;;9.75;8.00;;;;;;;;5073325;28;46993;-76
2021/08/27 06:28:16;;;;;;;;;19.75;13.75;;;;;;;;5071739;28;47045;-76
2021/08/27 06:30:42;;;;;;;;;13.00;10.00;;;;;;;;5079083;28;46897;-76
2021/08/27 06:33:08;;;;;;;;;17.75;12.00;;;;;;;;5078924;28;46797;-76
2021/08/27 06:35:33;;;;;;;;;12.00;12.00;;;;;;;;5078684;28;47829;-76
2021/08/27 06:40:43;;;;;;;;;13.50;10.75;;;;;;;;5078901;28;46843;-76
2021/08/27 06:43:09;;;;;;;;;12.25;11.50;;;;;;;;5078672;28;47303;-76
2021/08/27 06:45:34;;;;;;;;;13.50;9.50;;;;;;;;5060322;28;48426;-76
2021/08/27 06:47:59;;;;;;;;;14.25;11.75;;;;;;;;5078155;28;46793;-76
2021/08/27 06:50:25;;;;;;;;;18.25;12.75;;;;;;;;5078667;28;47105;-76
2021/08/27 06:52:50;;;;;;;;;14.00;8.75;;;;;;;;5060448;28;47077;-76
2021/08/27 06:55:16;;;;;;;;;18.25;12.00;;;;;;;;5078397;28;46971;-76
2021/08/27 06:57:41;;;;;;;;;16.25;12.50;;;;;;;;5078223;28;46833;-76
2021/08/27 07:00:07;;;;;;;;;13.50;11.50;;;;;;;;5060466;28;46988;-76
2021/08/27 07:02:32;;;;;;;;;15.25;9.50;;;;;;;;5060222;28;47186;-76
2021/08/27 07:04:57;;;;;;;;;17.00;13.75;;;;;;;;5078403;28;47066;-76
2021/08/27 07:07:23;;;;;;;;;17.00;11.00;;;;;;;;5060292;28;47608;-76
2021/08/27 07:09:48;;;;;;;;;21.50;12.25;;;;;;;;5060161;28;46937;-76
2021/08/27 07:12:13;;;;;;;;;16.75;13.75;;;;;;;;5080629;28;47058;-76
2021/08/27 07:14:40;;;;;;;;;11.00;10.25;;;;;;;;5082112;28;47002;-76
2021/08/27 07:17:05;;;;;;;;;14.25;12.00;;;;;;;;5063398;28;47181;-76
2021/08/27 07:19:30;;;;;;;;;17.25;11.25;;;;;;;;5081804;28;47043;-76
2021/08/27 07:21:55;;;;;;;;;11.25;8.50;;;;;;;;5082035;28;46952;-76
2021/08/27 07:24:21;;;;;;;;;10.50;10.25;;;;;;;;5063382;28;46977;-76
2021/08/27 07:26:46;;;;;;;;;16.25;11.75;;;;;;;;5069254;28;47000;-76
2021/08/27 07:29:12;;;;;;;;;14.25;10.75;;;;;;;;5082017;28;46811;-76
2021/08/27 07:31:37;;;;;;;;;12.25;9.75;;;;;;;;5082056;28;47039;-76
2021/08/27 07:34:02;;;;;;;;;15.00;11.50;;;;;;;;5081225;28;46886;-76
2021/08/27 07:36:28;;;;;;;;;13.25;10.75;;;;;;;;5081539;28;46986;-76
2021/08/27 07:38:53;;;;;;;;;9.25;8.25;;;;;;;;5081748;28;46825;-76
2021/08/27 07:41:18;;;;;;;;;15.25;10.50;;;;;;;;5063286;28;47268;-76
2021/08/27 07:43:44;;;;;;;;;12.75;10.75;;;;;;;;5081061;28;46800;-76
2021/08/27 07:46:09;;;;;;;;;13.25;10.75;;;;;;;;5081676;28;46913;-76
2021/08/27 07:48:34;;;;;;;;;15.25;11.00;;;;;;;;5081098;28;46813;-76
2021/08/27 07:50:59;;;;;;;;;14.50;11.75;;;;;;;;5081445;28;46876;-76
2021/08/27 07:53:25;;;;;;;;;10.75;9.50;;;;;;;;5081022;28;46933;-76
2021/08/27 07:55:50;;;;;;;;;9.75;7.75;;;;;;;;5081160;28;46849;-76
2021/08/27 07:58:16;;;;;;;;;13.75;9.25;;;;;;;;5080971;28;47233;-76
2021/08/27 08:00:41;;;;;;;;;9.75;9.00;;;;;;;;5081608;28;46957;-76
2021/08/27 08:03:06;;;;;;;;;11.25;9.00;;;;;;;;5062430;28;49168;-76
2021/08/27 08:05:31;;;;;;;;;8.75;8.00;;;;;;;;5081400;28;46885;-76
2021/08/27 08:07:57;;;;;;;;;9.75;7.75;;;;;;;;5081155;28;47136;-76
2021/08/27 08:10:22;;;;;;;;;10.00;5.75;;;;;;;;5062805;28;47213;-76
2021/08/27 08:12:47;;;;;;;;;9.75;8.25;;;;;;;;5080735;28;47687;-76
2021/08/27 08:15:14;;;;;;;;;12.50;7.00;;;;;;;;5080866;28;46925;-76
2021/08/27 08:17:40;;;;;;;;;7.25;7.25;;;;;;;;5080504;28;46982;-76
2021/08/27 08:20:05;;;;;;;;;10.25;5.25;;;;;;;;5081199;28;47172;-76
2021/08/27 08:22:31;;;;;;;;;7.00;4.75;;;;;;;;5080295;28;46962;-76
2021/08/27 08:24:56;;;;;;;;;9.50;7.00;;;;;;;;5062611;28;47842;-76
2021/08/27 08:27:22;;;;;;;;;5.50;5.50;;;;;;;;5080542;28;46904;-76
2021/08/27 08:29:48;;;;;;;;;5.25;4.50;;;;;;;;5081028;28;47050;-76
2021/08/27 08:32:13;;;;;;;;;5.00;5.00;;;;;;;;5080705;28;47501;-76
2021/08/27 08:34:39;;;;;;;;;6.25;3.00;;;;;;;;5080180;28;46965;-76
2021/08/27 08:37:04;;;;;;;;;4.50;3.50;;;;;;;;5080809;28;46987;-76
2021/08/27 08:39:29;;;;;;;;;5.75;3.75;;;;;;;;5080954;28;46777;-76
2021/08/27 08:41:55;;;;;;;;;4.25;3.75;;;;;;;;5080630;28;47926;-76
2021/08/27 08:44:21;;;;;;;;;6.75;3.75;;;;;;;;5080565;28;47185;-76
2021/08/27 08:46:47;;;;;;;;;7.00;3.75;;;;;;;;5080761;28;46768;-76
2021/08/27 08:49:13;;;;;;;;;5.00;2.50;;;;;;;;5080541;28;46919;-76
2021/08/27 08:51:41;;;;;;;;;6.25;3.50;;;;;;;;5080566;28;46962;-76
2021/08/27 08:54:08;;;;;;;;;7.25;4.50;;;;;;;;5080565;28;46956;-76
2021/08/27 08:56:35;;;;;;;;;5.50;2.75;;;;;;;;5080419;28;46773;-76
2021/08/27 08:59:00;;;;;;;;;6.75;5.00;;;;;;;;5080522;28;46838;-76
2021/08/27 09:01:25;;;;;;;;;7.50;4.25;;;;;;;;5061887;28;48479;-76
2021/08/27 09:03:51;;;;;;;;;5.75;3.25;;;;;;;;5080100;28;46771;-76
2021/08/27 09:06:16;;;;;;;;;6.00;4.75;;;;;;;;5062037;28;47061;-76
2021/08/27 09:08:45;;;;;;;;;6.00;5.25;;;;;;;;5080667;28;47302;-76
2021/08/27 09:11:21;;;;;;;;;6.00;4.25;;;;;;;;5080232;28;46912;-76
2021/08/27 09:13:48;;;;;;;;;6.00;3.75;;;;;;;;5080003;28;46963;-76
2021/08/27 09:16:14;;;;;;;;;6.25;5.75;;;;;;;;5079823;28;46914;-76
2021/08/27 09:18:40;;;;;;;;;6.00;3.00;;;;;;;;5080158;28;47078;-76
2021/08/27 09:21:24;;;;;;;;;6.50;6.25;;;;;;;;5080004;28;46865;-76
2021/08/27 09:23:49;;;;;;;;;5.25;5.25;;;;;;;;5080016;28;46818;-76
2021/08/27 09:26:44;;;;;;;;;9.00;4.25;;;;;;;;5079761;28;46825;-76
2021/08/27 09:29:10;;;;;;;;;5.75;3.25;;;;;;;;5040247;28;47233;-76
2021/08/27 09:31:37;;;;;;;;;5.50;5.00;;;;;;;;5079914;28;47266;-76
2021/08/27 09:34:02;;;;;;;;;3.25;3.25;;;;;;;;5059810;28;47031;-76
2021/08/27 09:36:31;;;;;;;;;4.25;4.00;;;;;;;;5079836;28;46982;-76
2021/08/27 09:39:02;;;;;;;;;4.25;3.75;;;;;;;;5079900;28;47318;-76
2021/08/27 09:41:27;;;;;;;;;4.25;2.75;;;;;;;;5079730;28;48133;-76
2021/08/27 09:43:56;;;;;;;;;4.00;2.00;;;;;;;;5079501;28;46932;-76
2021/08/27 09:46:29;;;;;;;;;5.75;2.75;;;;;;;;5079611;28;46861;-76
2021/08/27 09:48:54;;;;;;;;;2.25;1.25;;;;;;;;5061241;28;47220;-76
2021/08/27 09:51:49;;;;;;;;;1.25;0.75;;;;;;;;5079511;28;47054;-76
2021/08/27 09:54:27;;;;;;;;;0.75;0.75;;;;;;;;5061989;28;47054;-76
2021/08/27 09:56:55;;;;;;;;;1.50;1.00;;;;;;;;5079724;28;46899;-76
2021/08/27 09:59:52;;;;;;;;;1.50;1.00;;;;;;;;5079544;28;47262;-76
2021/08/27 10:02:28;;;;;;;;;0.75;0.75;;;;;;;;5045179;28;48232;-76
2021/08/27 10:04:55;;;;;;;;;1.00;1.00;;;;;;;;5079737;28;47024;-76
2021/08/27 10:07:32;;;;;;;;;0.00;0.00;;;;;;;;5061163;28;47154;-76
2021/08/27 10:09:58;;;;;;;;;2.50;0.50;;;;;;;;5079683;28;46971;-76
2021/08/27 10:12:27;;;;;;;;;1.00;1.00;;;;;;;;5079052;28;47010;-76
2021/08/27 10:14:53;;;;;;;;;1.25;0.25;;;;;;;;5079272;28;46875;-76
2021/08/27 10:17:19;;;;;;;;;0.00;0.00;;;;;;;;5078866;28;46814;-77
2021/08/27 10:19:45;;;;;;;;;2.50;1.00;;;;;;;;5061036;28;47223;-76
2021/08/27 10:22:10;;;;;;;;;0.00;0.00;;;;;;;;5079114;28;47005;-76
2021/08/27 10:24:35;;;;;;;;;0.25;0.25;;;;;;;;5079131;28;46941;-76
2021/08/27 10:27:01;;;;;;;;;0.00;0.00;;;;;;;;5066049;28;47047;-76
2021/08/27 10:29:26;;;;;;;;;1.00;0.00;;;;;;;;5060901;28;47012;-77
2021/08/27 10:31:52;;;;;;;;;2.75;1.00;;;;;;;;5078589;28;46910;-77
2021/08/27 10:34:18;;;;;;;;;0.50;0.00;;;;;;;;5078718;28;46910;-76
2021/08/27 10:36:47;;;;;;;;;1.00;1.00;;;;;;;;5060552;28;47035;-76
2021/08/27 10:39:31;;;;;;;;;2.00;1.00;;;;;;;;5079269;28;47033;-76
2021/08/27 10:41:56;;;;;;;;;1.75;1.00;;;;;;;;5078717;28;46901;-76
2021/08/27 10:44:41;;;;;;;;;2.50;0.00;;;;;;;;5078848;28;46951;-76
2021/08/27 10:47:08;;;;;;;;;0.25;0.00;;;;;;;;5060258;28;47127;-76
2021/08/27 10:49:45;;;;;;;;;0.00;0.00;;;;;;;;5078721;28;46957;-76
2021/08/27 10:52:29;;;;;;;;;3.00;1.00;;;;;;;;5078761;28;47122;-76
2021/08/27 10:55:04;;;;;;;;;0.50;0.50;;;;;;;;5078446;28;47010;-76
2021/08/27 10:57:41;;;;;;;;;0.00;0.00;;;;;;;;5060286;28;47013;-76
2021/08/27 11:00:07;;;;;;;;;0.25;0.25;;;;;;;;5078927;28;47141;-77
2021/08/27 11:02:49;;;;;;;;;0.25;0.00;;;;;;;;5078245;28;46891;-77
2021/08/27 11:05:29;;;;;;;;;3.00;1.00;;;;;;;;5060286;28;47034;-76
2021/08/27 11:07:59;;;;;;;;;0.00;0.00;;;;;;;;5060326;28;46842;-76
2021/08/27 11:10:24;;;;;;;;;0.00;0.00;;;;;;;;5060470;28;47138;-77
2021/08/27 11:12:56;;;;;;;;;0.75;0.00;;;;;;;;5078213;28;46956;-76
2021/08/27 11:15:30;;;;;;;;;0.25;0.25;;;;;;;;5078469;28;47109;-76
2021/08/27 11:18:14;;;;;;;;;2.75;1.00;;;;;;;;5078188;28;47035;-76
2021/08/27 11:20:40;;;;;;;;;1.00;1.00;;;;;;;;5078527;28;46810;-76
2021/08/27 11:23:05;;;;;;;;;5.00;1.00;;;;;;;;5078319;28;46868;-76
2021/08/27 11:25:31;;;;;;;;;1.00;1.00;;;;;;;;5075630;28;46867;-76
2021/08/27 11:28:06;;;;;;;;;1.50;0.25;;;;;;;;5067872;28;47211;-76
2021/08/27 11:30:32;;;;;;;;;0.75;0.50;;;;;;;;5060090;28;46963;-76
2021/08/27 11:33:01;;;;;;;;;1.00;1.00;;;;;;;;5077860;28;47167;-76
2021/08/27 11:35:27;;;;;;;;;1.25;1.00;;;;;;;;5059780;28;47015;-76
2021/08/27 11:37:57;;;;;;;;;1.00;0.00;;;;;;;;5060078;28;46976;-76
2021/08/27 11:40:22;;;;;;;;;0.50;0.50;;;;;;;;5059991;28;47190;-76
2021/08/27 11:42:53;;;;;;;;;0.00;0.00;;;;;;;;5078018;28;47730;-77
2021/08/27 11:45:20;;;;;;;;;1.00;1.00;;;;;;;;5077988;28;47006;-76
2021/08/27 11:47:47;;;;;;;;;0.00;0.00;;;;;;;;5077847;28;46786;-77
2021/08/27 11:50:23;;;;;;;;;0.00;0.00;;;;;;;;5078085;28;46999;-76
2021/08/27 11:52:55;;;;;;;;;0.25;0.25;;;;;;;;5077956;28;48038;-76
2021/08/27 11:55:20;;;;;;;;;3.00;0.25;;;;;;;;5078002;28;47017;-76
2021/08/27 11:58:11;;;;;;;;;0.75;0.75;;;;;;;;5079174;28;47130;-76
2021/08/27 12:00:38;;;;;;;;;5.00;1.75;;;;;;;;5059486;28;46995;-76
2021/08/27 12:03:04;;;;;;;;;1.00;1.00;;;;;;;;5062662;28;49719;-76
2021/08/27 12:05:30;;;;;;;;;0.00;0.00;;;;;;;;5081616;28;46928;-76
2021/08/27 12:07:56;;;;;;;;;1.00;1.00;;;;;;;;5081278;28;46989;-76
2021/08/27 12:10:22;;;;;;;;;0.00;0.00;;;;;;;;5081778;28;47096;-76
2021/08/27 12:12:49;;;;;;;;;1.50;0.25;;;;;;;;5062635;28;48352;-76
2021/08/27 12:15:16;;;;;;;;;1.00;1.00;;;;;;;;5081187;28;47002;-77
2021/08/27 12:17:55;;;;;;;;;1.50;0.50;;;;;;;;5080589;28;46928;-76
2021/08/27 12:20:22;;;;;;;;;2.25;1.00;;;;;;;;5063008;28;47031;-76
2021/08/27 12:22:49;;;;;;;;;0.00;0.00;;;;;;;;5068128;28;47056;-76
2021/08/27 12:25:18;;;;;;;;;2.00;0.00;;;;;;;;5080820;28;47103;-76
2021/08/27 12:27:48;;;;;;;;;1.50;1.00;;;;;;;;5050378;28;46909;-76
2021/08/27 12:30:13;;;;;;;;;1.00;1.00;;;;;;;;5081052;28;47110;-76
2021/08/27 12:32:41;;;;;;;;;1.00;1.00;;;;;;;;5080785;28;47866;-76
2021/08/27 12:35:08;;;;;;;;;2.00;1.00;;;;;;;;5080610;28;47229;-76
2021/08/27 12:37:34;;;;;;;;;1.00;1.00;;;;;;;;5080955;28;47097;-76
2021/08/27 12:39:59;;;;;;;;;1.50;1.00;;;;;;;;5080937;28;46872;-76
2021/08/27 12:42:25;;;;;;;;;1.00;1.00;;;;;;;;5080755;28;47869;-76
2021/08/27 12:45:02;;;;;;;;;3.50;1.00;;;;;;;;5080547;28;47114;-76
2021/08/27 12:47:31;;;;;;;;;1.25;0.75;;;;;;;;5080378;28;47407;-76
2021/08/27 12:50:15;;;;;;;;;2.25;1.00;;;;;;;;5062431;28;46982;-77
2021/08/27 12:52:41;;;;;;;;;2.25;1.00;;;;;;;;5080552;28;48058;-77
2021/08/27 12:55:22;;;;;;;;;1.50;1.50;;;;;;;;5062094;28;47516;-77
2021/08/27 12:57:48;;;;;;;;;1.00;1.00;;;;;;;;5080296;28;46928;-76
2021/08/27 13:00:18;;;;;;;;;2.00;2.00;;;;;;;;5080772;28;47055;-76
2021/08/27 13:02:43;;;;;;;;;2.00;2.00;;;;;;;;5079835;28;47168;-76
2021/08/27 13:05:10;;;;;;;;;2.25;2.00;;;;;;;;5080453;28;46906;-77
2021/08/27 13:07:35;;;;;;;;;2.50;1.00;;;;;;;;5061930;28;46810;-77
2021/08/27 13:10:09;;;;;;;;;1.00;1.00;;;;;;;;5080668;28;46765;-78
2021/08/27 13:12:35;;;;;;;;;2.50;1.50;;;;;;;;5079929;28;46881;-77
2021/08/27 13:15:01;;;;;;;;;1.00;1.00;;;;;;;;5080149;28;46951;-76
2021/08/27 13:17:26;;;;;;;;;1.75;1.00;;;;;;;;5058050;28;47267;-77
2021/08/27 13:19:56;;;;;;;;;2.50;1.00;;;;;;;;5060021;28;46873;-77
2021/08/27 13:22:26;;;;;;;;;2.50;1.00;;;;;;;;5059601;28;47108;-76
2021/08/27 13:24:55;;;;;;;;;1.75;1.25;;;;;;;;5059774;28;46774;-76
2021/08/27 13:27:21;;;;;;;;;1.50;1.00;;;;;;;;5046350;28;46978;-76
2021/08/27 13:29:46;;;;;;;;;2.00;2.00;;;;;;;;5058514;28;47010;-77
2021/08/27 13:32:25;;;;;;;;;2.00;2.00;;;;;;;;5057986;28;48483;-77
2021/08/27 13:34:51;;;;;;;;;0.25;0.25;;;;;;;;5058060;28;47131;-77
2021/08/27 13:37:16;;;;;;;;;1.00;1.00;;;;;;;;5059652;28;46857;-77
2021/08/27 13:39:42;;;;;;;;;2.00;1.00;;;;;;;;5059768;28;46861;-77
2021/08/27 13:42:07;;;;;;;;;2.00;0.50;;;;;;;;5059434;28;47847;-77
2021/08/27 13:44:33;;;;;;;;;1.00;1.00;;;;;;;;5059505;28;46924;-77
2021/08/27 13:46:58;;;;;;;;;1.00;1.00;;;;;;;;5059437;28;46935;-77
2021/08/27 13:49:23;;;;;;;;;1.25;1.25;;;;;;;;5057833;28;46958;-76
2021/08/27 13:51:48;;;;;;;;;1.25;1.25;;;;;;;;5059113;28;48005;-77
2021/08/27 13:54:14;;;;;;;;;1.00;1.00;;;;;;;;5059332;28;47022;-77
2021/08/27 13:56:39;;;;;;;;;2.25;2.00;;;;;;;;5059012;28;48230;-77
2021/08/27 13:59:04;;;;;;;;;2.00;1.25;;;;;;;;5059428;28;46856;-77
2021/08/27 14:01:30;;;;;;;;;1.00;1.00;;;;;;;;5057675;28;48192;-77
2021/08/27 14:03:56;;;;;;;;;1.00;1.00;;;;;;;;5059057;28;46960;-77
2021/08/27 14:06:22;;;;;;;;;1.25;1.25;;;;;;;;5059055;28;47124;-77
2021/08/27 14:08:47;;;;;;;;;3.00;1.00;;;;;;;;5059431;28;47043;-77
2021/08/27 14:11:13;;;;;;;;;1.75;1.00;;;;;;;;5058953;28;46954;-77
2021/08/27 14:13:38;;;;;;;;;2.00;2.00;;;;;;;;5059016;28;46831;-77
2021/08/27 14:16:04;;;;;;;;;2.00;2.00;;;;;;;;5058863;28;47628;-77
2021/08/27 14:18:30;;;;;;;;;1.75;1.75;;;;;;;;5079430;28;46888;-77
2021/08/27 14:20:55;;;;;;;;;2.50;2.50;;;;;;;;5060110;28;49269;-77
2021/08/27 14:23:21;;;;;;;;;1.00;1.00;;;;;;;;5079318;28;46782;-76
2021/08/27 14:25:46;;;;;;;;;4.00;2.00;;;;;;;;5074234;28;47116;-76
2021/08/27 14:28:11;;;;;;;;;3.00;2.00;;;;;;;;5071020;28;47203;-76
2021/08/27 14:30:37;;;;;;;;;4.00;2.00;;;;;;;;5078996;28;47699;-76
2021/08/27 14:33:04;;;;;;;;;1.75;1.50;;;;;;;;5078699;28;46940;-76
2021/08/27 14:35:30;;;;;;;;;2.00;2.00;;;;;;;;5078972;28;47036;-76
2021/08/27 14:37:55;;;;;;;;;3.00;2.75;;;;;;;;5079129;28;46952;-76
2021/08/27 14:40:21;;;;;;;;;1.50;1.25;;;;;;;;5078689;28;46876;-76
2021/08/27 14:42:46;;;;;;;;;3.00;2.00;;;;;;;;5078735;28;46963;-77